createdAt,value
2018-03-25T00:01:23.631Z,65.28
2018-03-25T00:03:51.270Z,157.30
2018-03-25T00:06:18.866Z,191.17
2018-03-25T00:08:46.500Z,211.77
2018-03-25T00:11:14.123Z,187.53
2018-03-25T00:13:41.723Z,157.73
2018-03-25T00:16:09.345Z,138.23
2018-03-25T00:18:36.935Z,73.50
2018-03-25T00:21:04.798Z,147.27
2018-03-25T00:23:32.471Z,144.93
2018-03-25T00:26:00.074Z,334.07
2018-03-25T00:28:27.704Z,82.60
2018-03-25T00:30:55.310Z,176.80
2018-03-25T00:33:22.928Z,288.67
2018-03-25T00:35:50.532Z,290.17
2018-03-25T00:38:18.554Z,193.03
2018-03-25T00:40:46.228Z,81.53
2018-03-25T00:43:13.826Z,91.47
2018-03-25T00:45:41.524Z,89.40
2018-03-25T00:48:09.204Z,225.07
2018-03-25T00:50:36.913Z,79.95
2018-03-25T00:53:04.525Z,131.10
2018-03-25T00:55:32.116Z,108.17
2018-03-25T00:57:59.824Z,196.87
2018-03-25T01:00:27.509Z,159.93
2018-03-25T01:02:55.325Z,69.70
2018-03-25T01:05:22.916Z,49.53
2018-03-25T01:07:50.596Z,92.80
2018-03-25T01:10:18.300Z,199.20
2018-03-25T01:12:45.988Z,117.85
2018-03-25T01:15:13.731Z,68.18
2018-03-25T01:17:41.407Z,117.37
2018-03-25T01:20:09.097Z,115.30
2018-03-25T01:22:36.797Z,34.88
2018-03-25T01:25:04.488Z,123.47
2018-03-25T01:27:32.188Z,79.57
2018-03-25T01:29:59.860Z,78.62
2018-03-25T01:32:27.562Z,61.90
2018-03-25T01:34:55.264Z,43.05
2018-03-25T01:37:23.013Z,46.90
2018-03-25T01:39:50.696Z,35.50
2018-03-25T01:42:18.388Z,31.15
2018-03-25T01:44:46.095Z,34.42
2018-03-25T01:47:13.808Z,48.85
2018-03-25T01:49:41.488Z,43.78
2018-03-25T01:52:09.171Z,50.50
2018-03-25T01:54:36.864Z,57.17
2018-03-25T01:57:04.537Z,159.93
2018-03-25T01:59:32.249Z,106.65
2018-03-25T02:01:59.931Z,75.30
2018-03-25T02:04:27.623Z,94.62
2018-03-25T02:06:55.317Z,56.78
2018-03-25T02:09:23.003Z,88.85
2018-03-25T02:11:50.773Z,114.05
2018-03-25T02:14:18.447Z,80.45
2018-03-25T02:16:46.147Z,80.62
2018-03-25T02:19:13.820Z,71.60
2018-03-25T02:21:41.534Z,58.20
2018-03-25T02:24:09.234Z,31.77
2018-03-25T02:26:36.916Z,32.42
2018-03-25T02:29:04.609Z,27.98
2018-03-25T02:31:32.281Z,184.50
2018-03-25T02:34:00.028Z,159.70
2018-03-25T02:36:27.712Z,112.72
2018-03-25T02:38:55.413Z,171.98
2018-03-25T02:41:23.090Z,172.25
2018-03-25T02:43:51.079Z,118.53
2018-03-25T02:46:18.761Z,69.65
2018-03-25T02:48:46.458Z,48.80
2018-03-25T02:51:14.162Z,32.80
2018-03-25T02:53:41.844Z,30.42
2018-03-25T02:56:09.544Z,29.58
2018-03-25T02:58:37.225Z,31.12
2018-03-25T03:01:04.966Z,101.97
2018-03-25T03:03:32.644Z,101.18
2018-03-25T03:06:00.373Z,105.05
2018-03-25T03:08:28.063Z,44.95
2018-03-25T03:10:55.775Z,59.60
2018-03-25T03:13:23.488Z,54.17
2018-03-25T03:15:51.235Z,40.85
2018-03-25T03:18:18.958Z,31.52
2018-03-25T03:20:46.649Z,27.75
2018-03-25T03:23:14.332Z,28.35
2018-03-25T03:25:42.004Z,29.05
2018-03-25T03:28:09.704Z,28.70
2018-03-25T03:30:37.382Z,30.92
2018-03-25T03:33:05.080Z,28.35
2018-03-25T03:35:32.764Z,27.65
2018-03-25T03:38:00.480Z,27.98
2018-03-25T03:40:28.157Z,31.73
2018-03-25T03:42:55.861Z,34.90
2018-03-25T03:45:23.535Z,34.15
2018-03-25T03:47:51.263Z,30.27
2018-03-25T03:50:18.951Z,29.60
2018-03-25T03:52:46.685Z,24.50
2018-03-25T03:55:14.356Z,29.25
2018-03-25T03:57:42.027Z,30.33
2018-03-25T04:00:09.742Z,28.92
2018-03-25T04:02:37.434Z,27.90
2018-03-25T04:05:05.146Z,25.90
2018-03-25T04:07:32.827Z,25.37
2018-03-25T04:10:00.520Z,28.25
2018-03-25T04:12:28.266Z,29.70
2018-03-25T04:14:56.209Z,27.60
2018-03-25T04:17:23.960Z,29.42
2018-03-25T04:19:51.628Z,29.92
2018-03-25T04:22:19.312Z,31.83
2018-03-25T04:24:46.991Z,28.85
2018-03-25T04:27:14.690Z,31.90
2018-03-25T04:29:42.363Z,24.75
2018-03-25T04:32:10.063Z,30.55
2018-03-25T04:34:37.739Z,31.00
2018-03-25T04:37:05.439Z,29.63
2018-03-25T04:39:33.145Z,29.27
2018-03-25T04:42:00.885Z,38.88
2018-03-25T04:44:28.575Z,30.45
2018-03-25T04:46:56.257Z,30.40
2018-03-25T04:49:23.954Z,34.30
2018-03-25T04:51:51.633Z,31.75
2018-03-25T04:54:19.732Z,32.13
2018-03-25T04:56:47.418Z,33.42
2018-03-25T04:59:15.094Z,26.37
2018-03-25T05:01:42.783Z,26.25
2018-03-25T05:04:10.446Z,23.05
2018-03-25T05:06:38.159Z,25.42
2018-03-25T05:09:05.829Z,30.25
2018-03-25T05:11:33.779Z,28.05
2018-03-25T05:14:01.464Z,34.33
2018-03-25T05:16:29.193Z,26.87
2018-03-25T05:18:56.873Z,29.98
2018-03-25T05:21:24.566Z,27.60
2018-03-25T05:23:52.256Z,29.85
2018-03-25T05:26:19.926Z,30.70
2018-03-25T05:28:47.612Z,29.17
2018-03-25T05:31:15.281Z,29.48
2018-03-25T05:33:42.984Z,36.22
2018-03-25T05:36:10.684Z,36.75
2018-03-25T05:38:38.390Z,31.40
2018-03-25T05:41:06.064Z,31.40
2018-03-25T05:43:33.776Z,33.63
2018-03-25T05:46:01.458Z,35.45
2018-03-25T05:48:29.164Z,30.10
2018-03-25T05:50:56.840Z,29.12
2018-03-25T05:53:24.535Z,40.35
2018-03-25T05:55:52.216Z,29.17
2018-03-25T05:58:19.947Z,38.47
2018-03-25T06:00:47.624Z,34.75
2018-03-25T06:03:15.324Z,37.25
2018-03-25T06:05:42.996Z,33.88
2018-03-25T06:08:10.706Z,51.22
2018-03-25T06:10:38.380Z,39.70
2018-03-25T06:13:06.091Z,37.33
2018-03-25T06:15:33.767Z,35.88
2018-03-25T06:18:01.457Z,34.97
2018-03-25T06:20:29.142Z,41.35
2018-03-25T06:22:56.860Z,44.30
2018-03-25T06:25:25.152Z,47.42
2018-03-25T06:27:52.841Z,43.83
2018-03-25T06:30:20.541Z,37.97
2018-03-25T06:32:48.208Z,42.53
2018-03-25T06:35:15.907Z,43.08
2018-03-25T06:37:43.582Z,49.75
2018-03-25T06:40:12.954Z,35.88
2018-03-25T06:42:40.632Z,50.08
2018-03-25T06:45:08.317Z,51.92
2018-03-25T06:47:36.020Z,43.38
2018-03-25T06:50:03.703Z,41.00
2018-03-25T06:52:31.407Z,36.05
2018-03-25T06:54:59.084Z,41.70
2018-03-25T06:57:26.816Z,42.70
2018-03-25T06:59:54.484Z,51.45
2018-03-25T07:02:22.157Z,58.10
2018-03-25T07:04:49.847Z,49.75
2018-03-25T07:07:17.518Z,50.70
2018-03-25T07:09:45.225Z,55.72
2018-03-25T07:12:12.891Z,47.35
2018-03-25T07:14:40.485Z,44.93
2018-03-25T07:17:08.097Z,50.20
2018-03-25T07:19:35.700Z,43.27
2018-03-25T07:22:03.464Z,45.83
2018-03-25T07:24:31.059Z,44.07
2018-03-25T07:26:59.400Z,51.33
2018-03-25T07:29:27.113Z,41.23
2018-03-25T07:31:54.647Z,45.13
2018-03-25T07:34:22.273Z,46.43
2018-03-25T07:36:49.887Z,40.70
2018-03-25T07:39:17.796Z,47.70
2018-03-25T07:41:45.482Z,48.10
2018-03-25T07:44:13.076Z,40.60
2018-03-25T07:46:40.701Z,45.53
2018-03-25T07:49:08.295Z,48.10
2018-03-25T07:51:35.924Z,36.07
2018-03-25T07:54:03.517Z,47.33
2018-03-25T07:56:31.249Z,50.40
2018-03-25T07:58:58.855Z,50.00
2018-03-25T08:01:26.444Z,46.50
2018-03-25T08:03:54.130Z,47.63
2018-03-25T08:06:21.691Z,43.80
2018-03-25T08:08:49.311Z,42.50
2018-03-25T08:11:16.901Z,47.37
2018-03-25T08:13:44.877Z,36.93
2018-03-25T08:16:12.481Z,41.73
2018-03-25T08:18:40.110Z,47.37
2018-03-25T08:21:07.741Z,49.10
2018-03-25T08:23:35.336Z,38.17
2018-03-25T08:26:02.995Z,41.97
2018-03-25T08:28:30.589Z,44.33
2018-03-25T08:30:58.520Z,36.20
2018-03-25T08:33:26.108Z,49.07
2018-03-25T08:35:53.709Z,47.87
2018-03-25T08:38:21.335Z,39.60
2018-03-25T08:40:48.932Z,44.90
2018-03-25T08:43:16.561Z,45.37
2018-03-25T08:45:44.164Z,41.70
2018-03-25T08:48:11.790Z,45.93
2018-03-25T08:50:39.390Z,40.67
2018-03-25T08:53:07.393Z,46.27
2018-03-25T08:55:35.004Z,43.33
2018-03-25T08:58:02.613Z,39.77
2018-03-25T09:00:30.232Z,45.20
2018-03-25T09:02:57.843Z,39.87
2018-03-25T09:05:25.453Z,42.13
2018-03-25T09:07:53.045Z,48.87
2018-03-25T09:10:20.852Z,36.33
2018-03-25T09:12:48.435Z,40.10
2018-03-25T09:15:16.028Z,33.20
2018-03-25T09:17:43.652Z,36.27
2018-03-25T09:20:11.252Z,44.13
2018-03-25T09:22:38.863Z,38.83
2018-03-25T09:25:06.458Z,41.57
2018-03-25T09:27:34.414Z,36.30
2018-03-25T09:30:02.021Z,38.30
2018-03-25T09:32:29.624Z,43.53
2018-03-25T09:34:57.243Z,39.67
2018-03-25T09:37:24.845Z,41.67
2018-03-25T09:39:52.462Z,52.13
2018-03-25T09:42:20.048Z,34.90
2018-03-25T09:44:47.701Z,33.90
2018-03-25T09:47:15.296Z,33.87
2018-03-25T09:49:42.884Z,35.17
2018-03-25T09:52:10.515Z,35.03
2018-03-25T09:54:38.117Z,33.13
2018-03-25T09:57:05.741Z,33.47
2018-03-25T09:59:33.344Z,37.03
2018-03-25T10:02:04.812Z,34.13
2018-03-25T10:04:32.408Z,33.93
2018-03-25T10:07:00.216Z,40.03
2018-03-25T10:09:27.820Z,41.60
2018-03-25T10:11:55.412Z,42.93
2018-03-25T10:14:23.036Z,39.33
2018-03-25T10:16:50.646Z,39.40
2018-03-25T10:19:18.264Z,34.33
2018-03-25T10:21:45.862Z,38.23
2018-03-25T10:24:13.528Z,39.00
2018-03-25T10:26:41.147Z,38.37
2018-03-25T10:29:08.739Z,32.50
2018-03-25T10:31:36.377Z,41.23
2018-03-25T10:34:03.985Z,36.40
2018-03-25T10:36:31.844Z,33.50
2018-03-25T10:38:59.450Z,42.17
2018-03-25T10:41:27.399Z,36.83
2018-03-25T10:43:55.008Z,37.13
2018-03-25T10:46:22.608Z,34.50
2018-03-25T10:48:50.237Z,31.70
2018-03-25T10:51:17.840Z,35.20
2018-03-25T10:53:45.550Z,37.30
2018-03-25T10:56:13.165Z,36.27
2018-03-25T10:58:40.966Z,42.27
2018-03-25T11:01:08.594Z,34.30
2018-03-25T11:03:36.199Z,38.70
2018-03-25T11:06:03.824Z,35.73
2018-03-25T11:08:31.514Z,37.40
2018-03-25T11:10:59.135Z,36.37
2018-03-25T11:13:26.745Z,42.00
2018-03-25T11:15:54.864Z,38.17
2018-03-25T11:18:22.472Z,37.10
2018-03-25T11:20:50.067Z,39.27
2018-03-25T11:23:17.685Z,41.13
2018-03-25T11:25:45.284Z,39.27
2018-03-25T11:28:12.914Z,31.70
2018-03-25T11:30:40.520Z,43.23
2018-03-25T11:33:08.415Z,38.37
2018-03-25T11:35:36.027Z,31.80
2018-03-25T11:38:03.627Z,31.93
2018-03-25T11:40:31.289Z,31.90
2018-03-25T11:42:58.903Z,37.27
2018-03-25T11:45:26.526Z,29.00
2018-03-25T11:47:54.173Z,27.00
2018-03-25T11:50:22.049Z,30.47
2018-03-25T11:52:49.701Z,29.80
2018-03-25T11:55:17.473Z,30.23
2018-03-25T11:57:45.080Z,27.50
2018-03-25T12:00:12.690Z,30.23
2018-03-25T12:02:40.317Z,27.60
2018-03-25T12:05:07.912Z,30.57
2018-03-25T12:07:35.534Z,32.07
2018-03-25T12:10:03.183Z,29.57
2018-03-25T12:12:30.824Z,31.10
2018-03-25T12:14:58.433Z,29.03
2018-03-25T12:17:26.048Z,41.50
2018-03-25T12:19:53.690Z,39.37
2018-03-25T12:22:21.292Z,27.70
2018-03-25T12:24:48.916Z,38.40
2018-03-25T12:27:16.517Z,33.00
2018-03-25T12:29:44.227Z,28.90
2018-03-25T12:32:11.852Z,30.30
2018-03-25T12:34:39.491Z,32.30
2018-03-25T12:37:07.118Z,30.90
2018-03-25T12:39:35.493Z,31.20
2018-03-25T12:42:03.121Z,29.37
2018-03-25T12:44:30.726Z,33.07
2018-03-25T12:46:58.471Z,35.67
2018-03-25T12:49:26.097Z,33.57
2018-03-25T12:51:53.705Z,35.47
2018-03-25T12:54:21.350Z,30.67
2018-03-25T12:56:48.948Z,32.47
2018-03-25T12:59:16.689Z,30.17
2018-03-25T13:01:44.336Z,33.73
2018-03-25T13:04:12.009Z,28.60
2018-03-25T13:06:39.636Z,31.57
2018-03-25T13:09:07.337Z,34.03
2018-03-25T13:11:34.968Z,30.93
2018-03-25T13:14:02.574Z,31.37
2018-03-25T13:16:30.210Z,30.97
2018-03-25T13:18:57.853Z,31.50
2018-03-25T13:21:25.460Z,33.17
2018-03-25T13:23:53.107Z,31.30
2018-03-25T13:26:20.714Z,36.97
2018-03-25T13:28:48.530Z,32.60
2018-03-25T13:31:16.135Z,32.03
2018-03-25T13:33:43.745Z,29.77
2018-03-25T13:36:11.369Z,34.23
2018-03-25T13:38:38.972Z,26.27
2018-03-25T13:41:06.645Z,29.73
2018-03-25T13:43:34.208Z,37.07
2018-03-25T13:46:02.163Z,30.83
2018-03-25T13:48:29.784Z,31.70
2018-03-25T13:50:57.388Z,38.63
2018-03-25T13:53:25.000Z,34.30
2018-03-25T13:55:52.619Z,39.50
2018-03-25T13:58:20.241Z,33.70
2018-03-25T14:00:47.838Z,33.70
2018-03-25T14:03:15.701Z,43.50
2018-03-25T14:05:43.295Z,32.83
2018-03-25T14:08:10.890Z,34.67
2018-03-25T14:10:38.521Z,30.20
2018-03-25T14:13:06.126Z,32.53
2018-03-25T14:15:33.755Z,34.20
2018-03-25T14:18:01.347Z,35.70
2018-03-25T14:20:29.128Z,38.17
2018-03-25T14:22:56.728Z,34.40
2018-03-25T14:25:24.358Z,34.97
2018-03-25T14:27:51.984Z,31.17
2018-03-25T14:30:19.597Z,34.20
2018-03-25T14:32:47.208Z,40.13
2018-03-25T14:35:14.809Z,40.50
2018-03-25T14:37:42.663Z,41.90
2018-03-25T14:40:10.261Z,40.07
2018-03-25T14:42:37.864Z,31.87
2018-03-25T14:45:05.488Z,39.50
2018-03-25T14:47:33.093Z,31.47
2018-03-25T14:50:00.711Z,38.40
2018-03-25T14:52:28.323Z,39.73
2018-03-25T14:54:55.941Z,35.13
2018-03-25T14:57:23.557Z,35.30
2018-03-25T14:59:51.337Z,33.70
2018-03-25T15:02:18.936Z,34.50
2018-03-25T15:04:46.641Z,36.50
2018-03-25T15:07:14.283Z,31.43
2018-03-25T15:09:41.892Z,32.03
2018-03-25T15:12:09.515Z,34.53
2018-03-25T15:14:37.116Z,30.10
2018-03-25T15:17:04.800Z,36.23
2018-03-25T15:19:32.373Z,32.07
2018-03-25T15:21:59.991Z,34.30
2018-03-25T15:24:27.604Z,33.43
2018-03-25T15:26:55.249Z,31.23
2018-03-25T15:29:22.856Z,34.60
2018-03-25T15:31:50.483Z,39.70
2018-03-25T15:34:18.079Z,35.60
2018-03-25T15:36:45.716Z,41.47
2018-03-25T15:39:13.335Z,37.00
2018-03-25T15:41:40.981Z,42.23
2018-03-25T15:44:08.582Z,32.10
2018-03-25T15:46:36.373Z,34.83
2018-03-25T15:49:04.022Z,31.63
2018-03-25T15:51:31.627Z,41.00
2018-03-25T15:53:59.244Z,33.37
2018-03-25T15:56:26.836Z,33.47
2018-03-25T15:58:54.461Z,32.37
2018-03-25T16:01:22.057Z,34.30
2018-03-25T16:03:49.678Z,37.60
2018-03-25T16:06:17.273Z,37.20
2018-03-25T16:08:44.909Z,39.07
2018-03-25T16:11:12.508Z,40.33
2018-03-25T16:13:40.151Z,34.50
2018-03-25T16:16:07.966Z,35.20
2018-03-25T16:18:35.592Z,39.10
2018-03-25T16:21:03.260Z,32.63
2018-03-25T16:23:30.886Z,32.30
2018-03-25T16:25:58.491Z,42.83
2018-03-25T16:28:26.118Z,36.40
2018-03-25T16:30:53.726Z,41.10
2018-03-25T16:33:21.553Z,33.33
2018-03-25T16:35:49.158Z,33.77
2018-03-25T16:38:16.769Z,35.50
2018-03-25T16:40:44.410Z,42.63
2018-03-25T16:43:12.007Z,37.90
2018-03-25T16:45:39.628Z,40.13
2018-03-25T16:48:07.341Z,34.50
2018-03-25T16:50:35.316Z,35.97
2018-03-25T16:53:02.927Z,35.10
2018-03-25T16:55:30.548Z,36.90
2018-03-25T16:57:58.175Z,33.83
2018-03-25T17:00:25.763Z,38.83
2018-03-25T17:02:53.383Z,38.47
2018-03-25T17:05:20.993Z,38.27
2018-03-25T17:07:49.159Z,38.50
2018-03-25T17:10:16.770Z,52.63
2018-03-25T17:12:44.373Z,39.97
2018-03-25T17:15:12.017Z,40.03
2018-03-25T17:17:39.636Z,41.20
2018-03-25T17:20:07.291Z,40.57
2018-03-25T17:22:34.981Z,40.47
2018-03-25T17:25:02.889Z,52.53
2018-03-25T17:27:30.490Z,37.60
2018-03-25T17:29:58.104Z,36.33
2018-03-25T17:32:25.719Z,35.23
2018-03-25T17:34:53.320Z,39.57
2018-03-25T17:37:20.931Z,39.83
2018-03-25T17:39:48.526Z,41.87
2018-03-25T17:42:16.312Z,49.00
2018-03-25T17:44:43.911Z,34.43
2018-03-25T17:47:11.516Z,48.47
2018-03-25T17:49:39.142Z,44.83
2018-03-25T17:52:06.745Z,44.23
2018-03-25T17:54:34.370Z,39.87
2018-03-25T17:57:01.974Z,41.00
2018-03-25T17:59:29.576Z,43.67
2018-03-25T18:01:57.201Z,42.53
2018-03-25T18:04:24.819Z,41.57
2018-03-25T18:06:52.440Z,41.87
2018-03-25T18:09:20.036Z,38.37
2018-03-25T18:11:47.632Z,40.00
2018-03-25T18:14:15.243Z,42.67
2018-03-25T18:16:42.855Z,44.27
2018-03-25T18:19:10.490Z,50.93
2018-03-25T18:21:38.098Z,43.23
2018-03-25T18:24:05.693Z,38.33
2018-03-25T18:26:33.321Z,46.53
2018-03-25T18:29:00.940Z,46.40
2018-03-25T18:31:28.756Z,44.10
2018-03-25T18:33:56.366Z,43.13
2018-03-25T18:36:23.964Z,44.77
2018-03-25T18:38:51.599Z,49.77
2018-03-25T18:41:19.208Z,45.00
2018-03-25T18:43:46.847Z,44.90
2018-03-25T18:46:14.446Z,50.73
2018-03-25T18:48:42.286Z,59.33
2018-03-25T18:51:09.885Z,63.40
2018-03-25T18:53:37.493Z,64.80
2018-03-25T18:56:05.156Z,48.50
2018-03-25T18:58:32.768Z,51.23
2018-03-25T19:01:00.392Z,45.63
2018-03-25T19:03:27.996Z,59.43
2018-03-25T19:05:55.631Z,56.00
2018-03-25T19:08:23.258Z,61.80
2018-03-25T19:10:50.864Z,64.37
2018-03-25T19:13:18.498Z,52.40
2018-03-25T19:15:46.100Z,43.10
2018-03-25T19:18:13.784Z,51.30
2018-03-25T19:20:41.398Z,58.53
2018-03-25T19:23:08.995Z,57.83
2018-03-25T19:25:36.612Z,58.93
2018-03-25T19:28:04.220Z,66.00
2018-03-25T19:30:31.844Z,47.63
2018-03-25T19:33:00.242Z,56.60
2018-03-25T19:35:27.892Z,49.73
2018-03-25T19:37:55.485Z,53.23
2018-03-25T19:40:23.084Z,55.10
2018-03-25T19:42:50.708Z,57.03
2018-03-25T19:45:18.294Z,54.27
2018-03-25T19:47:45.914Z,51.07
2018-03-25T19:50:13.532Z,58.10
2018-03-25T19:52:41.184Z,48.50
2018-03-25T19:55:08.791Z,50.30
2018-03-25T19:57:36.417Z,49.30
2018-03-25T20:00:04.044Z,45.30
2018-03-25T20:02:31.650Z,42.57
2018-03-25T20:04:59.361Z,49.67
2018-03-25T20:07:26.961Z,44.87
2018-03-25T20:09:54.972Z,46.27
2018-03-25T20:12:22.598Z,51.63
2018-03-25T20:14:50.206Z,41.00
2018-03-25T20:17:17.976Z,51.93
2018-03-25T20:19:45.560Z,44.20
2018-03-25T20:22:13.216Z,44.57
2018-03-25T20:24:40.813Z,48.90
2018-03-25T20:27:08.781Z,41.93
2018-03-25T20:29:36.363Z,49.40
2018-03-25T20:32:03.963Z,41.23
2018-03-25T20:34:31.588Z,45.43
2018-03-25T20:36:59.194Z,43.33
2018-03-25T20:39:26.813Z,52.20
2018-03-25T20:41:54.404Z,50.73
2018-03-25T20:44:22.038Z,54.80
2018-03-25T20:46:49.634Z,47.23
2018-03-25T20:49:17.224Z,40.90
2018-03-25T20:51:44.835Z,35.53
2018-03-25T20:54:12.425Z,40.90
2018-03-25T20:56:40.052Z,35.30
2018-03-25T20:59:07.686Z,39.97
2018-03-25T21:01:35.528Z,43.60
2018-03-25T21:04:03.141Z,47.47
2018-03-25T21:06:30.736Z,44.17
2018-03-25T21:08:58.360Z,42.33
2018-03-25T21:11:25.962Z,39.07
2018-03-25T21:13:53.629Z,30.40
2018-03-25T21:16:21.236Z,24.27
2018-03-25T21:18:48.847Z,31.33
2018-03-25T21:21:16.444Z,48.73
2018-03-25T21:23:44.296Z,32.83
2018-03-25T21:26:11.883Z,34.57
2018-03-25T21:28:39.517Z,24.60
2018-03-25T21:31:07.244Z,28.13
2018-03-25T21:33:34.845Z,32.27
2018-03-25T21:36:02.463Z,28.37
2018-03-25T21:38:30.050Z,33.10
2018-03-25T21:40:57.695Z,40.00
2018-03-25T21:43:25.284Z,30.00
2018-03-25T21:45:52.888Z,36.73
2018-03-25T21:48:20.505Z,31.83
2018-03-25T21:50:48.141Z,31.90
2018-03-25T21:53:15.777Z,34.67
2018-03-25T21:55:43.382Z,29.37
2018-03-25T21:58:11.252Z,31.57
2018-03-25T22:00:38.851Z,29.20
2018-03-25T22:03:06.435Z,38.07
2018-03-25T22:05:34.076Z,29.00
2018-03-25T22:08:01.678Z,33.67
2018-03-25T22:10:29.296Z,38.47
2018-03-25T22:12:56.884Z,31.23
2018-03-25T22:15:24.885Z,30.93
2018-03-25T22:17:52.506Z,33.20
2018-03-25T22:20:20.143Z,32.17
2018-03-25T22:22:47.765Z,31.53
2018-03-25T22:25:15.358Z,34.43
2018-03-25T22:27:42.975Z,29.00
2018-03-25T22:30:10.566Z,28.23
2018-03-25T22:32:38.425Z,28.57
2018-03-25T22:35:06.019Z,33.77
2018-03-25T22:37:33.610Z,29.83
2018-03-25T22:40:01.245Z,32.17
2018-03-25T22:42:28.989Z,31.33
2018-03-25T22:44:56.633Z,33.80
2018-03-25T22:47:24.240Z,35.63
2018-03-25T22:49:52.269Z,41.10
2018-03-25T22:52:19.872Z,48.50
2018-03-25T22:54:47.460Z,35.90
2018-03-25T22:57:15.092Z,36.47
2018-03-25T22:59:42.815Z,27.80
2018-03-25T23:02:10.501Z,22.80
2018-03-25T23:04:38.087Z,20.20
2018-03-25T23:07:05.912Z,28.60
2018-03-25T23:09:33.507Z,19.70
2018-03-25T23:12:01.099Z,24.20
2018-03-25T23:14:28.704Z,15.57
2018-03-25T23:16:56.338Z,19.57
2018-03-25T23:19:23.928Z,22.07
2018-03-25T23:21:51.515Z,28.33
2018-03-25T23:24:19.543Z,24.23
2018-03-25T23:26:47.140Z,20.70
2018-03-25T23:29:14.735Z,21.47
2018-03-25T23:31:42.356Z,22.73
2018-03-25T23:34:09.953Z,26.50
2018-03-25T23:36:37.568Z,22.03
2018-03-25T23:39:05.168Z,24.37
2018-03-25T23:41:32.791Z,19.47
2018-03-25T23:44:00.382Z,31.30
2018-03-25T23:46:27.995Z,27.77
2018-03-25T23:48:55.623Z,19.57
2018-03-25T23:51:23.206Z,26.50
2018-03-25T23:53:50.824Z,29.33
2018-03-25T23:56:18.411Z,27.27
2018-03-25T23:58:46.232Z,27.27
